PAAQ METAR and TAF weather

Enter ICAO airport designator
Station Type Date Time Source
PAAQ METAR 2020/04/05 05:53 UTC NOAA

PAAQ 050553Z AUTO 00000KT 10SM BKN100 OVC110 03/M04 A2988 RMK AO2 SLP122 T00331039 10061 20028 56020 TSNO


Station Type Date Time Source
PAAQ Decoded METAR 2020/04/05 05:53 UTC NOAA

PALMER MUNICIPAL AIRPORT, AK, United States (PAAQ) 61-36N 149-06W
Apr 05, 2020 - 01:53 AM EDT / 2020.04.05 0553 UTC
Wind: Calm:0
Visibility: 10 mile(s):0
Sky conditions: overcast
Temperature: 37.9 F (3.3 C)
Dew Point: 25.0 F (-3.9 C)
Relative Humidity: 59%
Pressure (altimeter): 29.88 in. Hg (1011 hPa)
Pressure tendency: 0.06 inches (2.0 hPa) lower than three hours ago
ob: PAAQ 050553Z AUTO 00000KT 10SM BKN100 OVC110 03/M04 A2988 RMK AO2 SLP122 T00331039 10061 20028 56020 TSNO
cycle: 6

Station Type Date Time Source
PAAQ TAF 2020/04/05 06:40 UTC NOAA

TAF PAAQ 050538Z 0506/0606 11008KT P6SM SCT050 BKN100
TEMPO 0507/0510 -SHSN BKN035
FM051800 26009KT P6SM SCT025 OVC040

Example: see airport list